sensor_id;sensor_type;location;lat;lon;timestamp;P1;durP1;ratioP1;P2;durP2;ratioP2
27357;SDS011;14831;50.474;7.616;2023-05-23T00:01:24;8.1;;;7.3;;
27357;SDS011;14831;50.474;7.616;2023-05-23T00:06:24;8.1;;;7.3;;
27357;SDS011;14831;50.474;7.616;2023-05-23T00:11:25;7.6;;;6.9;;
27357;SDS011;14831;50.474;7.616;2023-05-23T00:16:24;7.6;;;6.9;;
27357;SDS011;14831;50.474;7.616;2023-05-23T00:21:24;7.6;;;6.9;;
27357;SDS011;14831;50.474;7.616;2023-05-23T00:26:24;7.6;;;6.9;;
27357;SDS011;14831;50.474;7.616;2023-05-23T00:31:24;7.6;;;6.9;;
27357;SDS011;14831;50.474;7.616;2023-05-23T00:36:24;7.6;;;6.9;;
27357;SDS011;14831;50.474;7.616;2023-05-23T00:41:24;7.0;;;6.3;;
27357;SDS011;14831;50.474;7.616;2023-05-23T00:46:24;7.0;;;6.3;;
27357;SDS011;14831;50.474;7.616;2023-05-23T00:51:24;7.0;;;6.3;;
27357;SDS011;14831;50.474;7.616;2023-05-23T00:56:24;7.0;;;6.3;;
27357;SDS011;14831;50.474;7.616;2023-05-23T01:01:24;7.0;;;6.3;;
27357;SDS011;14831;50.474;7.616;2023-05-23T01:06:24;7.0;;;6.3;;
27357;SDS011;14831;50.474;7.616;2023-05-23T01:11:29;6.8;;;6.1;;
27357;SDS011;14831;50.474;7.616;2023-05-23T01:16:30;6.8;;;6.1;;
27357;SDS011;14831;50.474;7.616;2023-05-23T01:21:25;6.8;;;6.1;;
27357;SDS011;14831;50.474;7.616;2023-05-23T01:26:32;6.8;;;6.1;;
27357;SDS011;14831;50.474;7.616;2023-05-23T01:31:26;6.8;;;6.1;;
27357;SDS011;14831;50.474;7.616;2023-05-23T01:36:24;6.8;;;6.1;;
27357;SDS011;14831;50.474;7.616;2023-05-23T01:41:24;6.3;;;5.7;;
27357;SDS011;14831;50.474;7.616;2023-05-23T01:46:26;6.3;;;5.7;;
27357;SDS011;14831;50.474;7.616;2023-05-23T01:51:24;6.3;;;5.7;;
27357;SDS011;14831;50.474;7.616;2023-05-23T01:56:25;6.3;;;5.7;;
27357;SDS011;14831;50.474;7.616;2023-05-23T02:01:24;6.3;;;5.7;;
27357;SDS011;14831;50.474;7.616;2023-05-23T02:06:24;6.3;;;5.7;;
27357;SDS011;14831;50.474;7.616;2023-05-23T02:11:24;6.3;;;5.7;;
27357;SDS011;14831;50.474;7.616;2023-05-23T02:16:24;6.3;;;5.7;;
27357;SDS011;14831;50.474;7.616;2023-05-23T02:21:24;6.3;;;5.7;;
27357;SDS011;14831;50.474;7.616;2023-05-23T02:26:24;6.3;;;5.7;;
27357;SDS011;14831;50.474;7.616;2023-05-23T02:31:25;6.3;;;5.7;;
27357;SDS011;14831;50.474;7.616;2023-05-23T02:36:24;6.3;;;5.7;;
27357;SDS011;14831;50.474;7.616;2023-05-23T02:41:24;6.4;;;5.8;;
27357;SDS011;14831;50.474;7.616;2023-05-23T02:46:24;6.4;;;5.8;;
27357;SDS011;14831;50.474;7.616;2023-05-23T02:51:24;6.4;;;5.8;;
27357;SDS011;14831;50.474;7.616;2023-05-23T02:56:24;6.4;;;5.8;;
27357;SDS011;14831;50.474;7.616;2023-05-23T03:01:24;6.4;;;5.8;;
27357;SDS011;14831;50.474;7.616;2023-05-23T03:06:24;6.4;;;5.8;;
27357;SDS011;14831;50.474;7.616;2023-05-23T03:11:24;6.2;;;5.7;;
27357;SDS011;14831;50.474;7.616;2023-05-23T03:16:24;6.2;;;5.7;;
27357;SDS011;14831;50.474;7.616;2023-05-23T03:21:24;6.2;;;5.7;;
27357;SDS011;14831;50.474;7.616;2023-05-23T03:26:24;6.2;;;5.7;;
27357;SDS011;14831;50.474;7.616;2023-05-23T03:31:24;6.2;;;5.7;;
27357;SDS011;14831;50.474;7.616;2023-05-23T03:36:24;6.2;;;5.7;;
27357;SDS011;14831;50.474;7.616;2023-05-23T03:41:24;5.2;;;4.8;;
27357;SDS011;14831;50.474;7.616;2023-05-23T03:46:24;5.2;;;4.8;;
27357;SDS011;14831;50.474;7.616;2023-05-23T03:51:24;5.2;;;4.8;;
27357;SDS011;14831;50.474;7.616;2023-05-23T03:56:24;5.2;;;4.8;;
27357;SDS011;14831;50.474;7.616;2023-05-23T04:01:24;5.2;;;4.8;;
27357;SDS011;14831;50.474;7.616;2023-05-23T04:06:24;5.2;;;4.8;;
27357;SDS011;14831;50.474;7.616;2023-05-23T04:11:24;5.1;;;4.7;;
27357;SDS011;14831;50.474;7.616;2023-05-23T04:16:24;5.1;;;4.7;;
27357;SDS011;14831;50.474;7.616;2023-05-23T04:21:24;5.1;;;4.7;;
27357;SDS011;14831;50.474;7.616;2023-05-23T04:26:24;5.1;;;4.7;;
27357;SDS011;14831;50.474;7.616;2023-05-23T04:31:24;5.1;;;4.7;;
27357;SDS011;14831;50.474;7.616;2023-05-23T04:36:24;5.1;;;4.7;;
27357;SDS011;14831;50.474;7.616;2023-05-23T04:41:24;4.9;;;4.4;;
27357;SDS011;14831;50.474;7.616;2023-05-23T04:46:24;4.9;;;4.4;;
27357;SDS011;14831;50.474;7.616;2023-05-23T04:51:24;4.9;;;4.4;;
27357;SDS011;14831;50.474;7.616;2023-05-23T04:56:24;4.9;;;4.4;;
27357;SDS011;14831;50.474;7.616;2023-05-23T05:01:24;4.9;;;4.4;;
27357;SDS011;14831;50.474;7.616;2023-05-23T05:06:24;4.9;;;4.4;;
27357;SDS011;14831;50.474;7.616;2023-05-23T05:11:24;7.4;;;6.6;;
27357;SDS011;14831;50.474;7.616;2023-05-23T05:16:24;7.4;;;6.6;;
27357;SDS011;14831;50.474;7.616;2023-05-23T05:21:24;7.4;;;6.6;;
27357;SDS011;14831;50.474;7.616;2023-05-23T05:26:24;7.4;;;6.6;;
27357;SDS011;14831;50.474;7.616;2023-05-23T05:31:24;7.4;;;6.6;;
27357;SDS011;14831;50.474;7.616;2023-05-23T05:36:24;7.4;;;6.6;;
27357;SDS011;14831;50.474;7.616;2023-05-23T05:41:24;7.0;;;5.3;;
27357;SDS011;14831;50.474;7.616;2023-05-23T05:46:24;7.0;;;5.3;;
27357;SDS011;14831;50.474;7.616;2023-05-23T05:51:24;7.0;;;5.3;;
27357;SDS011;14831;50.474;7.616;2023-05-23T05:56:24;7.0;;;5.3;;
27357;SDS011;14831;50.474;7.616;2023-05-23T06:01:24;7.0;;;5.3;;
27357;SDS011;14831;50.474;7.616;2023-05-23T06:06:24;7.0;;;5.3;;
27357;SDS011;14831;50.474;7.616;2023-05-23T06:11:24;5.7;;;5.1;;
27357;SDS011;14831;50.474;7.616;2023-05-23T06:16:24;5.7;;;5.1;;
27357;SDS011;14831;50.474;7.616;2023-05-23T06:21:24;5.7;;;5.1;;
27357;SDS011;14831;50.474;7.616;2023-05-23T06:26:24;5.7;;;5.1;;
27357;SDS011;14831;50.474;7.616;2023-05-23T06:31:24;5.7;;;5.1;;
27357;SDS011;14831;50.474;7.616;2023-05-23T06:36:24;5.7;;;5.1;;
27357;SDS011;14831;50.474;7.616;2023-05-23T06:41:24;4.9;;;4.4;;
27357;SDS011;14831;50.474;7.616;2023-05-23T06:46:25;4.9;;;4.4;;
27357;SDS011;14831;50.474;7.616;2023-05-23T06:51:24;4.9;;;4.4;;
27357;SDS011;14831;50.474;7.616;2023-05-23T06:56:24;4.9;;;4.4;;
27357;SDS011;14831;50.474;7.616;2023-05-23T07:01:25;4.9;;;4.4;;
27357;SDS011;14831;50.474;7.616;2023-05-23T07:06:24;4.9;;;4.4;;
27357;SDS011;14831;50.474;7.616;2023-05-23T07:11:24;5.4;;;4.9;;
27357;SDS011;14831;50.474;7.616;2023-05-23T07:16:24;5.4;;;4.9;;
27357;SDS011;14831;50.474;7.616;2023-05-23T07:21:24;5.4;;;4.9;;
27357;SDS011;14831;50.474;7.616;2023-05-23T07:26:24;5.4;;;4.9;;
27357;SDS011;14831;50.474;7.616;2023-05-23T07:31:24;5.4;;;4.9;;
27357;SDS011;14831;50.474;7.616;2023-05-23T07:36:24;5.4;;;4.9;;
27357;SDS011;14831;50.474;7.616;2023-05-23T07:41:24;5.0;;;4.5;;
27357;SDS011;14831;50.474;7.616;2023-05-23T07:46:24;5.0;;;4.5;;
27357;SDS011;14831;50.474;7.616;2023-05-23T07:51:24;5.0;;;4.5;;
27357;SDS011;14831;50.474;7.616;2023-05-23T07:56:24;5.0;;;4.5;;
27357;SDS011;14831;50.474;7.616;2023-05-23T08:01:24;5.0;;;4.5;;
27357;SDS011;14831;50.474;7.616;2023-05-23T08:06:24;5.0;;;4.5;;
27357;SDS011;14831;50.474;7.616;2023-05-23T08:11:24;5.0;;;4.6;;
27357;SDS011;14831;50.474;7.616;2023-05-23T08:16:24;5.0;;;4.6;;
27357;SDS011;14831;50.474;7.616;2023-05-23T08:21:24;5.0;;;4.6;;
27357;SDS011;14831;50.474;7.616;2023-05-23T08:26:24;5.0;;;4.6;;
27357;SDS011;14831;50.474;7.616;2023-05-23T08:31:24;5.0;;;4.6;;
27357;SDS011;14831;50.474;7.616;2023-05-23T08:36:24;5.0;;;4.6;;
27357;SDS011;14831;50.474;7.616;2023-05-23T08:41:25;5.8;;;5.2;;
27357;SDS011;14831;50.474;7.616;2023-05-23T08:46:25;5.8;;;5.2;;
27357;SDS011;14831;50.474;7.616;2023-05-23T08:51:26;5.8;;;5.2;;
27357;SDS011;14831;50.474;7.616;2023-05-23T08:56:24;5.8;;;5.2;;
27357;SDS011;14831;50.474;7.616;2023-05-23T09:01:25;5.8;;;5.2;;
27357;SDS011;14831;50.474;7.616;2023-05-23T09:06:24;5.8;;;5.2;;
27357;SDS011;14831;50.474;7.616;2023-05-23T09:11:24;5.0;;;4.5;;
27357;SDS011;14831;50.474;7.616;2023-05-23T09:16:31;5.0;;;4.5;;
27357;SDS011;14831;50.474;7.616;2023-05-23T09:21:24;5.0;;;4.5;;
27357;SDS011;14831;50.474;7.616;2023-05-23T09:26:24;5.0;;;4.5;;
27357;SDS011;14831;50.474;7.616;2023-05-23T09:31:25;5.0;;;4.5;;
27357;SDS011;14831;50.474;7.616;2023-05-23T09:36:27;5.0;;;4.5;;
27357;SDS011;14831;50.474;7.616;2023-05-23T09:41:24;5.0;;;4.6;;
27357;SDS011;14831;50.474;7.616;2023-05-23T09:46:28;5.0;;;4.6;;
27357;SDS011;14831;50.474;7.616;2023-05-23T09:51:24;5.0;;;4.6;;
27357;SDS011;14831;50.474;7.616;2023-05-23T09:56:25;5.0;;;4.6;;
27357;SDS011;14831;50.474;7.616;2023-05-23T10:01:26;5.0;;;4.6;;
27357;SDS011;14831;50.474;7.616;2023-05-23T10:06:25;5.0;;;4.6;;
27357;SDS011;14831;50.474;7.616;2023-05-23T10:13:20;5.7;;;5.2;;
27357;SDS011;14831;50.474;7.616;2023-05-23T10:16:30;5.7;;;5.2;;
27357;SDS011;14831;50.474;7.616;2023-05-23T10:21:29;5.7;;;5.2;;
27357;SDS011;14831;50.474;7.616;2023-05-23T10:26:25;5.7;;;5.2;;
27357;SDS011;14831;50.474;7.616;2023-05-23T10:31:25;5.7;;;5.2;;
27357;SDS011;14831;50.474;7.616;2023-05-23T10:36:29;5.7;;;5.2;;
27357;SDS011;14831;50.474;7.616;2023-05-23T10:41:30;5.8;;;5.3;;
27357;SDS011;14831;50.474;7.616;2023-05-23T10:46:49;5.8;;;5.3;;
27357;SDS011;14831;50.474;7.616;2023-05-23T10:51:24;5.8;;;5.3;;
27357;SDS011;14831;50.474;7.616;2023-05-23T10:56:24;5.8;;;5.3;;
27357;SDS011;14831;50.474;7.616;2023-05-23T11:01:25;5.8;;;5.3;;
27357;SDS011;14831;50.474;7.616;2023-05-23T11:06:29;5.8;;;5.3;;
27357;SDS011;14831;50.474;7.616;2023-05-23T11:11:24;5.8;;;5.3;;
27357;SDS011;14831;50.474;7.616;2023-05-23T11:16:27;5.8;;;5.3;;
27357;SDS011;14831;50.474;7.616;2023-05-23T11:21:24;5.8;;;5.3;;
27357;SDS011;14831;50.474;7.616;2023-05-23T11:26:28;5.8;;;5.3;;
27357;SDS011;14831;50.474;7.616;2023-05-23T11:31:24;5.8;;;5.3;;
27357;SDS011;14831;50.474;7.616;2023-05-23T11:36:25;5.8;;;5.3;;
27357;SDS011;14831;50.474;7.616;2023-05-23T11:41:24;5.7;;;5.3;;
27357;SDS011;14831;50.474;7.616;2023-05-23T11:46:24;5.7;;;5.3;;
27357;SDS011;14831;50.474;7.616;2023-05-23T11:51:24;5.7;;;5.3;;
27357;SDS011;14831;50.474;7.616;2023-05-23T11:56:24;5.7;;;5.3;;
27357;SDS011;14831;50.474;7.616;2023-05-23T12:01:28;5.7;;;5.3;;
27357;SDS011;14831;50.474;7.616;2023-05-23T12:06:24;5.7;;;5.3;;
27357;SDS011;14831;50.474;7.616;2023-05-23T12:11:24;5.9;;;5.4;;
27357;SDS011;14831;50.474;7.616;2023-05-23T12:16:24;5.9;;;5.4;;
27357;SDS011;14831;50.474;7.616;2023-05-23T12:21:25;5.9;;;5.4;;
27357;SDS011;14831;50.474;7.616;2023-05-23T12:26:24;5.9;;;5.4;;
27357;SDS011;14831;50.474;7.616;2023-05-23T12:31:24;5.9;;;5.4;;
27357;SDS011;14831;50.474;7.616;2023-05-23T12:36:25;5.9;;;5.4;;
27357;SDS011;14831;50.474;7.616;2023-05-23T12:41:25;6.8;;;6.2;;
27357;SDS011;14831;50.474;7.616;2023-05-23T12:46:25;6.8;;;6.2;;
27357;SDS011;14831;50.474;7.616;2023-05-23T12:51:24;6.8;;;6.2;;
27357;SDS011;14831;50.474;7.616;2023-05-23T12:56:24;6.8;;;6.2;;
27357;SDS011;14831;50.474;7.616;2023-05-23T13:01:24;6.8;;;6.2;;
27357;SDS011;14831;50.474;7.616;2023-05-23T13:06:25;6.8;;;6.2;;
27357;SDS011;14831;50.474;7.616;2023-05-23T13:11:24;6.8;;;6.2;;
27357;SDS011;14831;50.474;7.616;2023-05-23T13:16:24;6.8;;;6.2;;
27357;SDS011;14831;50.474;7.616;2023-05-23T13:21:24;6.8;;;6.2;;
27357;SDS011;14831;50.474;7.616;2023-05-23T13:26:24;6.8;;;6.2;;
27357;SDS011;14831;50.474;7.616;2023-05-23T13:31:24;6.8;;;6.2;;
27357;SDS011;14831;50.474;7.616;2023-05-23T13:36:24;6.8;;;6.2;;
27357;SDS011;14831;50.474;7.616;2023-05-23T13:41:24;8.4;;;7.5;;
27357;SDS011;14831;50.474;7.616;2023-05-23T13:46:24;8.4;;;7.5;;
27357;SDS011;14831;50.474;7.616;2023-05-23T13:51:24;8.4;;;7.5;;
27357;SDS011;14831;50.474;7.616;2023-05-23T13:56:24;8.4;;;7.5;;
27357;SDS011;14831;50.474;7.616;2023-05-23T14:01:24;8.4;;;7.5;;
27357;SDS011;14831;50.474;7.616;2023-05-23T14:06:24;8.4;;;7.5;;
27357;SDS011;14831;50.474;7.616;2023-05-23T14:11:24;8.5;;;7.5;;
27357;SDS011;14831;50.474;7.616;2023-05-23T14:16:24;8.5;;;7.5;;
27357;SDS011;14831;50.474;7.616;2023-05-23T14:21:24;8.5;;;7.5;;
27357;SDS011;14831;50.474;7.616;2023-05-23T14:26:24;8.5;;;7.5;;
27357;SDS011;14831;50.474;7.616;2023-05-23T14:31:24;8.5;;;7.5;;
27357;SDS011;14831;50.474;7.616;2023-05-23T14:36:24;8.5;;;7.5;;
27357;SDS011;14831;50.474;7.616;2023-05-23T14:41:24;11.1;;;8.9;;
27357;SDS011;14831;50.474;7.616;2023-05-23T14:46:24;11.1;;;8.9;;
27357;SDS011;14831;50.474;7.616;2023-05-23T14:51:24;11.1;;;8.9;;
27357;SDS011;14831;50.474;7.616;2023-05-23T14:56:24;11.1;;;8.9;;
27357;SDS011;14831;50.474;7.616;2023-05-23T15:01:24;11.1;;;8.9;;
27357;SDS011;14831;50.474;7.616;2023-05-23T15:06:24;11.1;;;8.9;;
27357;SDS011;14831;50.474;7.616;2023-05-23T15:11:24;7.5;;;6.8;;
27357;SDS011;14831;50.474;7.616;2023-05-23T15:16:24;7.5;;;6.8;;
27357;SDS011;14831;50.474;7.616;2023-05-23T15:21:24;7.5;;;6.8;;
27357;SDS011;14831;50.474;7.616;2023-05-23T15:26:24;7.5;;;6.8;;
27357;SDS011;14831;50.474;7.616;2023-05-23T15:31:24;7.5;;;6.8;;
27357;SDS011;14831;50.474;7.616;2023-05-23T15:36:24;7.5;;;6.8;;
27357;SDS011;14831;50.474;7.616;2023-05-23T15:41:24;8.9;;;7.5;;
27357;SDS011;14831;50.474;7.616;2023-05-23T15:46:24;8.9;;;7.5;;
27357;SDS011;14831;50.474;7.616;2023-05-23T15:51:24;8.9;;;7.5;;
27357;SDS011;14831;50.474;7.616;2023-05-23T15:56:24;8.9;;;7.5;;
27357;SDS011;14831;50.474;7.616;2023-05-23T16:01:24;8.9;;;7.5;;
27357;SDS011;14831;50.474;7.616;2023-05-23T16:06:24;8.9;;;7.5;;
27357;SDS011;14831;50.474;7.616;2023-05-23T16:11:24;8.2;;;6.7;;
27357;SDS011;14831;50.474;7.616;2023-05-23T16:16:24;8.2;;;6.7;;
27357;SDS011;14831;50.474;7.616;2023-05-23T16:21:24;8.2;;;6.7;;
27357;SDS011;14831;50.474;7.616;2023-05-23T16:26:24;8.2;;;6.7;;
27357;SDS011;14831;50.474;7.616;2023-05-23T16:31:25;8.2;;;6.7;;
27357;SDS011;14831;50.474;7.616;2023-05-23T16:36:24;8.2;;;6.7;;
27357;SDS011;14831;50.474;7.616;2023-05-23T16:41:24;7.0;;;5.6;;
27357;SDS011;14831;50.474;7.616;2023-05-23T16:46:24;7.0;;;5.6;;
27357;SDS011;14831;50.474;7.616;2023-05-23T16:51:24;7.0;;;5.6;;
27357;SDS011;14831;50.474;7.616;2023-05-23T16:56:24;7.0;;;5.6;;
27357;SDS011;14831;50.474;7.616;2023-05-23T17:01:24;7.0;;;5.6;;
27357;SDS011;14831;50.474;7.616;2023-05-23T17:06:24;7.0;;;5.6;;
27357;SDS011;14831;50.474;7.616;2023-05-23T17:11:24;5.1;;;4.6;;
27357;SDS011;14831;50.474;7.616;2023-05-23T17:16:24;5.1;;;4.6;;
27357;SDS011;14831;50.474;7.616;2023-05-23T17:21:24;5.1;;;4.6;;
27357;SDS011;14831;50.474;7.616;2023-05-23T17:26:25;5.1;;;4.6;;
27357;SDS011;14831;50.474;7.616;2023-05-23T17:31:24;5.1;;;4.6;;
27357;SDS011;14831;50.474;7.616;2023-05-23T17:36:24;5.1;;;4.6;;
27357;SDS011;14831;50.474;7.616;2023-05-23T17:41:24;8.3;;;6.5;;
27357;SDS011;14831;50.474;7.616;2023-05-23T17:46:24;8.3;;;6.5;;
27357;SDS011;14831;50.474;7.616;2023-05-23T17:51:24;8.3;;;6.5;;
27357;SDS011;14831;50.474;7.616;2023-05-23T17:56:24;8.3;;;6.5;;
27357;SDS011;14831;50.474;7.616;2023-05-23T18:01:24;8.3;;;6.5;;
27357;SDS011;14831;50.474;7.616;2023-05-23T18:06:24;8.3;;;6.5;;
27357;SDS011;14831;50.474;7.616;2023-05-23T18:11:24;5.9;;;5.1;;
27357;SDS011;14831;50.474;7.616;2023-05-23T18:16:24;5.9;;;5.1;;
27357;SDS011;14831;50.474;7.616;2023-05-23T18:21:25;5.9;;;5.1;;
27357;SDS011;14831;50.474;7.616;2023-05-23T18:26:24;5.9;;;5.1;;
27357;SDS011;14831;50.474;7.616;2023-05-23T18:31:24;5.9;;;5.1;;
27357;SDS011;14831;50.474;7.616;2023-05-23T18:36:25;5.9;;;5.1;;
27357;SDS011;14831;50.474;7.616;2023-05-23T18:41:24;4.3;;;3.9;;
27357;SDS011;14831;50.474;7.616;2023-05-23T18:46:24;4.3;;;3.9;;
27357;SDS011;14831;50.474;7.616;2023-05-23T18:51:25;4.3;;;3.9;;
27357;SDS011;14831;50.474;7.616;2023-05-23T18:56:24;4.3;;;3.9;;
27357;SDS011;14831;50.474;7.616;2023-05-23T19:01:24;4.3;;;3.9;;
27357;SDS011;14831;50.474;7.616;2023-05-23T19:06:24;4.3;;;3.9;;
27357;SDS011;14831;50.474;7.616;2023-05-23T19:11:24;3.7;;;3.3;;
27357;SDS011;14831;50.474;7.616;2023-05-23T19:16:24;3.7;;;3.3;;
27357;SDS011;14831;50.474;7.616;2023-05-23T19:21:25;3.7;;;3.3;;
27357;SDS011;14831;50.474;7.616;2023-05-23T19:26:24;3.7;;;3.3;;
27357;SDS011;14831;50.474;7.616;2023-05-23T19:31:24;3.7;;;3.3;;
27357;SDS011;14831;50.474;7.616;2023-05-23T19:36:24;3.7;;;3.3;;
27357;SDS011;14831;50.474;7.616;2023-05-23T19:41:24;3.6;;;3.1;;
27357;SDS011;14831;50.474;7.616;2023-05-23T19:46:25;3.6;;;3.1;;
27357;SDS011;14831;50.474;7.616;2023-05-23T19:51:24;3.6;;;3.1;;
27357;SDS011;14831;50.474;7.616;2023-05-23T19:56:24;3.6;;;3.1;;
27357;SDS011;14831;50.474;7.616;2023-05-23T20:01:24;3.6;;;3.1;;
27357;SDS011;14831;50.474;7.616;2023-05-23T20:06:24;3.6;;;3.1;;
27357;SDS011;14831;50.474;7.616;2023-05-23T20:11:24;3.0;;;2.7;;
27357;SDS011;14831;50.474;7.616;2023-05-23T20:16:24;3.0;;;2.7;;
27357;SDS011;14831;50.474;7.616;2023-05-23T20:21:24;3.0;;;2.7;;
27357;SDS011;14831;50.474;7.616;2023-05-23T20:26:24;3.0;;;2.7;;
27357;SDS011;14831;50.474;7.616;2023-05-23T20:31:24;3.0;;;2.7;;
27357;SDS011;14831;50.474;7.616;2023-05-23T20:36:24;3.0;;;2.7;;
27357;SDS011;14831;50.474;7.616;2023-05-23T20:41:24;2.7;;;2.5;;
27357;SDS011;14831;50.474;7.616;2023-05-23T20:46:24;2.7;;;2.5;;
27357;SDS011;14831;50.474;7.616;2023-05-23T20:51:24;2.7;;;2.5;;
27357;SDS011;14831;50.474;7.616;2023-05-23T20:56:24;2.7;;;2.5;;
27357;SDS011;14831;50.474;7.616;2023-05-23T21:01:24;2.7;;;2.5;;
27357;SDS011;14831;50.474;7.616;2023-05-23T21:06:24;2.7;;;2.5;;
27357;SDS011;14831;50.474;7.616;2023-05-23T21:11:24;2.6;;;2.4;;
27357;SDS011;14831;50.474;7.616;2023-05-23T21:16:24;2.6;;;2.4;;
27357;SDS011;14831;50.474;7.616;2023-05-23T21:21:24;2.6;;;2.4;;
27357;SDS011;14831;50.474;7.616;2023-05-23T21:26:24;2.6;;;2.4;;
27357;SDS011;14831;50.474;7.616;2023-05-23T21:31:24;2.6;;;2.4;;
27357;SDS011;14831;50.474;7.616;2023-05-23T21:36:24;2.6;;;2.4;;
27357;SDS011;14831;50.474;7.616;2023-05-23T21:41:24;2.2;;;2.0;;
27357;SDS011;14831;50.474;7.616;2023-05-23T21:46:24;2.2;;;2.0;;
27357;SDS011;14831;50.474;7.616;2023-05-23T21:51:24;2.2;;;2.0;;
27357;SDS011;14831;50.474;7.616;2023-05-23T21:56:24;2.2;;;2.0;;
27357;SDS011;14831;50.474;7.616;2023-05-23T22:01:25;2.2;;;2.0;;
27357;SDS011;14831;50.474;7.616;2023-05-23T22:06:24;2.2;;;2.0;;
27357;SDS011;14831;50.474;7.616;2023-05-23T22:11:24;2.2;;;2.0;;
27357;SDS011;14831;50.474;7.616;2023-05-23T22:16:24;2.2;;;2.0;;
27357;SDS011;14831;50.474;7.616;2023-05-23T22:21:25;2.2;;;2.0;;
27357;SDS011;14831;50.474;7.616;2023-05-23T22:26:24;2.2;;;2.0;;
27357;SDS011;14831;50.474;7.616;2023-05-23T22:31:24;2.2;;;2.0;;
27357;SDS011;14831;50.474;7.616;2023-05-23T22:36:24;2.2;;;2.0;;
27357;SDS011;14831;50.474;7.616;2023-05-23T22:41:24;2.0;;;1.8;;
27357;SDS011;14831;50.474;7.616;2023-05-23T22:46:24;2.0;;;1.8;;
27357;SDS011;14831;50.474;7.616;2023-05-23T22:51:24;2.0;;;1.8;;
27357;SDS011;14831;50.474;7.616;2023-05-23T22:56:24;2.0;;;1.8;;
27357;SDS011;14831;50.474;7.616;2023-05-23T23:01:24;2.0;;;1.8;;
27357;SDS011;14831;50.474;7.616;2023-05-23T23:06:24;2.0;;;1.8;;
27357;SDS011;14831;50.474;7.616;2023-05-23T23:11:24;1.8;;;1.7;;
27357;SDS011;14831;50.474;7.616;2023-05-23T23:16:24;1.8;;;1.7;;
27357;SDS011;14831;50.474;7.616;2023-05-23T23:21:24;1.8;;;1.7;;
27357;SDS011;14831;50.474;7.616;2023-05-23T23:26:24;1.8;;;1.7;;
27357;SDS011;14831;50.474;7.616;2023-05-23T23:31:25;1.8;;;1.7;;
27357;SDS011;14831;50.474;7.616;2023-05-23T23:36:24;1.8;;;1.7;;
27357;SDS011;14831;50.474;7.616;2023-05-23T23:41:24;1.8;;;1.6;;
27357;SDS011;14831;50.474;7.616;2023-05-23T23:46:24;1.8;;;1.6;;
27357;SDS011;14831;50.474;7.616;2023-05-23T23:51:24;1.8;;;1.6;;
27357;SDS011;14831;50.474;7.616;2023-05-23T23:56:24;1.8;;;1.6;;
